Time;durP1;ratioP1;P1;durP2;ratioP2;P2;SDS_P1;SDS_P2;PMS_P1;PMS_P2;Temp;Humidity;BMP_temperature;BMP_pressure;BME280_temperature;BME280_humidity;BME280_pressure;Samples;Min_cycle;Max_cycle;Signal;HPM_P1;HPM_P2
2022/01/12 00:01:14;;;;;;;24.17;15.67;;;3.80;99.90;;;;;;5030681;28;20405;-76
2022/01/12 00:03:40;;;;;;;26.83;18.57;;;;;;;;;;5024300;28;20037;-76
2022/01/12 00:06:07;;;;;;;24.50;15.93;;;;;;;;;;5050375;28;20532;-76
2022/01/12 00:08:33;;;;;;;24.40;15.80;;;;;;;;;;5050271;28;20079;-76
2022/01/12 00:10:59;;;;;;;26.53;16.60;;;3.80;99.90;;;;;;5032300;28;20108;-76
2022/01/12 00:13:25;;;;;;;30.70;17.50;;;;;;;;;;5031600;28;20041;-76
2022/01/12 00:15:52;;;;;;;27.40;15.83;;;3.70;99.90;;;;;;5014934;28;20163;-76
2022/01/12 00:18:18;;;;;;;22.90;15.97;;;3.70;99.90;;;;;;5031957;28;20036;-76
2022/01/12 00:20:44;;;;;;;22.97;15.77;;;3.70;99.90;;;;;;5047203;28;20084;-76
2022/01/12 00:23:10;;;;;;;25.83;17.43;;;3.60;99.90;;;;;;5034430;28;20562;-76
2022/01/12 00:33:51;;;;;;;28.27;17.15;;;;;;;;;;5032464;28;20040;-75
2022/01/12 00:36:16;;;;;;;28.93;19.30;;;3.40;99.90;;;;;;5014324;28;20359;-76
2022/01/12 00:38:42;;;;;;;24.03;15.40;;;3.50;99.90;;;;;;5045296;28;20040;-75
2022/01/12 00:41:07;;;;;;;28.30;17.00;;;3.50;99.90;;;;;;5032523;28;20081;-75
2022/01/12 00:43:34;;;;;;;24.70;17.93;;;;;;;;;;5031460;28;20025;-75
2022/01/12 00:46:00;;;;;;;25.20;18.20;;;3.40;99.90;;;;;;5031632;28;20051;-75
2022/01/12 00:48:26;;;;;;;26.90;18.07;;;;;;;;;;5033116;28;20037;-75
2022/01/12 00:50:52;;;;;;;32.83;20.13;;;3.40;99.90;;;;;;5030154;28;20489;-75
2022/01/12 00:53:17;;;;;;;40.87;23.20;;;3.40;99.90;;;;;;5051613;28;20032;-75
2022/01/12 00:55:43;;;;;;;31.57;21.03;;;3.50;99.90;;;;;;5051271;28;20510;-75
2022/01/12 00:58:09;;;;;;;35.70;21.87;;;;;;;;;;5051277;28;20025;-75
2022/01/12 01:00:35;;;;;;;29.77;19.47;;;3.40;99.90;;;;;;5018695;28;20418;-75
2022/01/12 01:03:01;;;;;;;29.40;17.47;;;3.50;99.90;;;;;;5013621;28;20029;-75
2022/01/12 01:05:29;;;;;;;32.20;20.43;;;3.50;99.90;;;;;;5031145;28;20044;-75
2022/01/12 01:07:56;;;;;;;36.90;20.80;;;;;;;;;;5031563;28;20041;-75
2022/01/12 01:10:33;;;;;;;33.83;19.57;;;;;;;;;;5024864;28;20537;-75
2022/01/12 01:12:59;;;;;;;37.57;20.63;;;3.40;99.90;;;;;;5033384;28;20079;-75
2022/01/12 01:15:55;;;;;;;37.37;21.03;;;3.40;99.90;;;;;;5050174;28;20393;-75
2022/01/12 01:26:40;;;;;;;35.57;21.40;;;;;;;;;;5030953;28;20052;-75
2022/01/12 01:29:06;;;;;;;39.37;23.93;;;3.40;99.90;;;;;;5031187;28;20029;-76
2022/01/12 01:31:33;;;;;;;38.47;23.63;;;3.40;99.90;;;;;;5032415;28;20090;-75
2022/01/12 01:34:06;;;;;;;34.07;22.83;;;3.50;99.90;;;;;;5050957;28;20017;-75
2022/01/12 01:36:34;;;;;;;40.33;22.47;;;3.40;99.90;;;;;;5050645;28;20029;-75
2022/01/12 01:38:59;;;;;;;30.23;19.63;;;3.70;99.90;;;;;;5050859;28;20032;-75
2022/01/12 01:41:25;;;;;;;34.23;22.90;;;;;;;;;;5045286;28;20048;-76
2022/01/12 01:54:50;;;;;;;31.08;20.58;;;3.40;99.90;;;;;;5050692;28;19915;-76
2022/01/12 01:57:16;;;;;;;32.43;21.03;;;3.60;99.90;;;;;;5050349;28;20030;-75
2022/01/12 01:59:42;;;;;;;38.27;23.30;;;;;;;;;;5049084;28;20438;-75
2022/01/12 02:02:07;;;;;;;34.23;21.30;;;3.70;99.90;;;;;;5050090;28;20465;-75
2022/01/12 02:04:33;;;;;;;43.53;25.73;;;3.40;99.90;;;;;;5048152;28;20068;-75
2022/01/12 02:06:59;;;;;;;38.20;26.37;;;3.20;99.90;;;;;;5050349;28;20119;-75
2022/01/12 02:09:26;;;;;;;35.10;21.93;;;3.50;99.90;;;;;;5049701;28;20580;-75
2022/01/12 02:11:53;;;;;;;43.83;26.87;;;3.50;99.90;;;;;;5032548;28;20029;-76
2022/01/12 02:14:19;;;;;;;44.07;25.67;;;3.50;99.90;;;;;;5049554;28;20533;-75
2022/01/12 02:17:00;;;;;;;44.47;27.40;;;;;;;;;;5047331;28;20033;-75
2022/01/12 02:36:14;;;;;;;44.90;24.20;;;3.60;99.90;;;;;;5049837;28;20062;-75
2022/01/12 02:41:24;;;;;;;42.10;27.17;;;;;;;;;;5038940;28;20476;-75
2022/01/12 02:54:43;;;;;;;39.20;24.83;;;3.80;99.90;;;;;;5041842;28;20033;-74
2022/01/12 02:57:10;;;;;;;50.47;29.13;;;;;;;;;;5011078;28;20032;-74
2022/01/12 02:59:36;;;;;;;47.13;28.90;;;;;;;;;;5029059;28;20064;-75
2022/01/12 03:02:21;;;;;;;50.13;29.93;;;3.50;99.90;;;;;;5029317;28;20423;-75
2022/01/12 03:07:42;;;;;;;58.65;33.95;;;3.50;99.90;;;;;;5035159;28;19913;-75
2022/01/12 03:10:10;;;;;;;61.37;35.63;;;3.50;99.90;;;;;;5049072;28;20021;-75
2022/01/12 03:12:40;;;;;;;60.00;36.30;;;3.50;99.90;;;;;;5047555;28;20036;-75
2022/01/12 03:15:06;;;;;;;54.33;31.97;;;3.40;99.90;;;;;;5048709;28;20029;-75
2022/01/12 03:17:31;;;;;;;61.53;34.40;;;3.50;99.90;;;;;;5048603;28;20025;-75
2022/01/12 03:19:57;;;;;;;66.80;35.50;;;;;;;;;;5027577;28;20033;-75
2022/01/12 03:22:23;;;;;;;52.90;31.37;;;3.60;99.90;;;;;;5028440;28;20041;-75
2022/01/12 03:24:48;;;;;;;70.40;39.00;;;3.60;99.90;;;;;;5029338;28;20040;-75
2022/01/12 03:27:16;;;;;;;65.67;36.07;;;;;;;;;;5028631;28;20034;-75
2022/01/12 03:29:43;;;;;;;62.20;35.73;;;;;;;;;;5035512;28;20029;-74
2022/01/12 03:32:11;;;;;;;58.17;33.57;;;3.50;99.90;;;;;;5031089;28;20033;-74
2022/01/12 03:34:41;;;;;;;57.43;34.30;;;3.60;99.90;;;;;;5030518;28;20021;-74
2022/01/12 03:37:38;;;;;;;60.53;33.00;;;;;;;;;;5047922;28;20029;-75
2022/01/12 03:40:01;;;;;;;;;;;3.60;99.90;;;;;;5046386;28;20554;-74
2022/01/12 03:42:28;;;;;;;60.00;35.07;;;3.60;99.90;;;;;;5046366;28;19913;-75
2022/01/12 03:44:54;;;;;;;68.93;35.87;;;;;;;;;;5025747;28;20055;-75
2022/01/12 03:47:20;;;;;;;56.80;34.07;;;;;;;;;;5026873;28;20116;-75
2022/01/12 03:49:46;;;;;;;55.00;32.30;;;;;;;;;;5026506;28;20053;-74
2022/01/12 03:52:12;;;;;;;78.57;39.67;;;;;;;;;;5026704;28;20041;-74
2022/01/12 03:54:38;;;;;;;66.63;37.93;;;;;;;;;;5026019;28;20022;-75
2022/01/12 03:57:04;;;;;;;62.77;34.87;;;2.90;99.90;;;;;;5047163;28;20033;-74
2022/01/12 03:59:30;;;;;;;75.90;41.33;;;3.60;99.90;;;;;;5048325;28;20047;-74
2022/01/12 04:01:56;;;;;;;66.17;37.30;;;;;;;;;;5048838;28;20037;-74
2022/01/12 04:04:30;;;;;;;60.50;36.87;;;;;;;;;;5048329;28;20800;-75
2022/01/12 04:09:40;;;;;;;63.83;36.95;;;3.70;99.90;;;;;;5037971;28;20099;-75
2022/01/12 04:12:06;;;;;;;61.17;36.20;;;;;;;;;;5028600;28;20037;-74
2022/01/12 04:14:32;;;;;;;59.03;34.73;;;;;;;;;;5033905;28;20025;-74
2022/01/12 04:16:58;;;;;;;58.40;34.30;;;;;;;;;;5048619;28;20039;-74
2022/01/12 04:19:26;;;;;;;64.33;37.87;;;;;;;;;;5045279;28;20543;-74
2022/01/12 04:21:52;;;;;;;79.27;40.27;;;3.70;99.90;;;;;;5028592;28;20132;-75
2022/01/12 04:24:18;;;;;;;60.03;37.30;;;;;;;;;;5030281;28;20112;-75
2022/01/12 04:26:44;;;;;;;68.20;38.70;;;;;;;;;;5031843;28;20021;-75
2022/01/12 04:29:09;;;;;;;58.43;36.30;;;3.70;99.90;;;;;;5032275;28;20025;-75
2022/01/12 04:31:36;;;;;;;65.53;35.87;;;3.60;99.90;;;;;;5033844;28;20433;-75
2022/01/12 04:34:04;;;;;;;58.40;36.40;;;3.60;99.90;;;;;;5052022;28;20029;-75
2022/01/12 04:36:29;;;;;;;71.60;38.33;;;3.60;99.90;;;;;;5033733;28;20029;-75
2022/01/12 04:38:55;;;;;;;69.90;38.13;;;3.50;99.90;;;;;;5051715;28;20029;-75
2022/01/12 04:41:24;;;;;;;73.93;39.03;;;3.70;99.90;;;;;;5033666;28;20044;-75
2022/01/12 04:43:50;;;;;;;68.50;37.87;;;3.60;99.90;;;;;;5030457;28;20116;-75
2022/01/12 04:51:08;;;;;;;57.93;33.10;;;;;;;;;;5051671;28;20032;-75
2022/01/12 04:53:33;;;;;;;62.17;35.80;;;3.60;99.90;;;;;;5050561;28;20029;-75
2022/01/12 04:55:59;;;;;;;57.20;31.93;;;3.60;99.90;;;;;;5039190;28;20029;-75
2022/01/12 04:58:25;;;;;;;66.03;38.77;;;;;;;;;;5031084;28;20410;-75
2022/01/12 05:00:52;;;;;;;58.83;34.90;;;3.70;99.90;;;;;;5031670;28;20033;-75
2022/01/12 05:14:00;;;;;;;69.70;38.33;;;;;;;;;;5051482;28;20079;-75
2022/01/12 05:16:26;;;;;;;62.87;35.17;;;3.50;99.90;;;;;;5050749;28;20021;-75
2022/01/12 05:18:54;;;;;;;63.77;36.03;;;3.60;99.90;;;;;;5051400;28;20087;-75
2022/01/12 05:21:22;;;;;;;59.03;32.47;;;3.70;99.90;;;;;;5050428;28;20075;-75
2022/01/12 05:23:49;;;;;;;60.70;32.07;;;3.70;99.90;;;;;;5047276;28;20072;-75
2022/01/12 05:26:14;;;;;;;61.60;35.30;;;3.80;99.90;;;;;;5031073;28;20029;-74
2022/01/12 05:28:40;;;;;;;67.80;38.73;;;3.70;99.90;;;;;;5030776;28;20390;-75
2022/01/12 05:31:07;;;;;;;66.33;37.80;;;3.70;99.90;;;;;;5030929;28;20037;-74
2022/01/12 05:33:33;;;;;;;72.53;38.17;;;3.80;99.90;;;;;;5030090;28;20021;-74
2022/01/12 05:36:03;;;;;;;59.67;36.47;;;3.70;99.90;;;;;;5030082;28;20028;-75
2022/01/12 05:38:28;;;;;;;61.27;36.07;;;3.70;99.90;;;;;;5041705;28;20020;-75
2022/01/12 05:40:57;;;;;;;60.57;35.70;;;4.10;99.90;;;;;;5050769;28;20600;-74
2022/01/12 05:43:26;;;;;;;56.80;32.73;;;3.90;99.90;;;;;;5050233;28;20082;-75
2022/01/12 05:45:54;;;;;;;83.53;39.30;;;3.70;99.90;;;;;;5050815;28;20493;-74
2022/01/12 05:50:48;;;;;;;64.40;36.23;;;;;;;;;;5050001;28;20029;-74
2022/01/12 05:53:14;;;;;;;66.50;35.77;;;;;;;;;;5021758;28;20100;-73
2022/01/12 05:55:40;;;;;;;77.67;41.23;;;;;;;;;;5050062;28;20029;-74
2022/01/12 05:58:06;;;;;;;63.53;33.30;;;;;;;;;;5050320;28;20025;-74
2022/01/12 06:00:32;;;;;;;62.27;36.13;;;3.70;99.90;;;;;;5050008;28;20029;-75
2022/01/12 06:02:58;;;;;;;74.03;38.63;;;;;;;;;;5050371;28;20523;-75
2022/01/12 06:05:24;;;;;;;64.47;34.60;;;;;;;;;;5049316;28;20104;-74
2022/01/12 06:07:51;;;;;;;54.87;32.40;;;3.70;99.90;;;;;;5050098;28;20064;-74
2022/01/12 06:10:21;;;;;;;66.70;37.57;;;3.80;99.90;;;;;;5028947;28;20449;-74
2022/01/12 06:12:47;;;;;;;72.47;38.60;;;;;;;;;;5030149;28;20056;-74
2022/01/12 06:15:12;;;;;;;80.07;41.07;;;3.60;99.90;;;;;;5030193;28;20021;-74
2022/01/12 06:17:38;;;;;;;100.23;48.83;;;3.60;99.90;;;;;;5012132;28;20032;-74
2022/01/12 06:20:05;;;;;;;64.27;38.13;;;3.80;99.90;;;;;;5029354;28;20411;-74
2022/01/12 06:22:31;;;;;;;76.20;39.97;;;3.90;99.90;;;;;;5036824;28;20482;-74
2022/01/12 06:24:58;;;;;;;68.43;38.00;;;3.80;99.90;;;;;;5050088;28;20075;-74
2022/01/12 06:27:28;;;;;;;66.20;35.43;;;3.80;99.90;;;;;;5049275;28;20071;-74
2022/01/12 06:32:29;;;;;;;97.33;43.30;;;3.90;99.90;;;;;;5049354;28;20466;-74
2022/01/12 06:34:54;;;;;;;74.20;38.87;;;3.70;99.90;;;;;;5049437;28;20029;-75
2022/01/12 06:37:20;;;;;;;76.03;38.83;;;;;;;;;;5043908;28;20481;-74
2022/01/12 06:39:46;;;;;;;90.93;39.90;;;3.70;99.90;;;;;;5029643;28;20090;-74
2022/01/12 06:42:11;;;;;;;88.90;40.43;;;3.70;99.90;;;;;;5029622;28;20471;-74
2022/01/12 06:44:37;;;;;;;89.33;39.83;;;;;;;;;;5029312;28;20032;-75
2022/01/12 06:47:04;;;;;;;94.70;40.33;;;3.90;99.90;;;;;;5029376;28;20026;-74
2022/01/12 06:49:30;;;;;;;90.50;39.67;;;4.00;99.90;;;;;;5028695;28;20025;-74
2022/01/12 06:51:59;;;;;;;81.63;37.87;;;;;;;;;;5028489;28;20032;-74
2022/01/12 06:54:25;;;;;;;68.37;30.40;;;;;;;;;;5030698;28;20486;-74
2022/01/12 06:56:51;;;;;;;92.43;39.23;;;;;;;;;;5049461;28;20043;-75
2022/01/12 06:59:17;;;;;;;80.83;37.83;;;;;;;;;;5031494;28;20420;-74
2022/01/12 07:01:44;;;;;;;120.07;44.37;;;3.90;99.90;;;;;;5048925;28;20430;-75
2022/01/12 07:04:10;;;;;;;74.07;37.17;;;4.00;99.90;;;;;;5048779;28;20039;-74
2022/01/12 07:06:36;;;;;;;84.30;37.60;;;4.00;99.90;;;;;;5048311;28;20025;-75
2022/01/12 07:09:04;;;;;;;108.17;41.63;;;4.00;99.90;;;;;;5048752;28;20025;-74
2022/01/12 07:11:30;;;;;;;93.23;38.50;;;;;;;;;;5047731;28;20036;-75
2022/01/12 07:13:55;;;;;;;115.53;42.63;;;4.00;99.90;;;;;;5048501;28;20111;-75
2022/01/12 07:16:21;;;;;;;150.80;46.27;;;;;;;;;;5047881;28;20442;-75
2022/01/12 07:18:47;;;;;;;83.00;37.17;;;3.90;99.90;;;;;;5048210;28;20029;-75
2022/01/12 07:21:12;;;;;;;59.70;32.03;;;4.10;99.90;;;;;;5048342;28;20053;-74
2022/01/12 07:23:38;;;;;;;179.53;51.43;;;4.00;99.90;;;;;;5048340;28;20112;-75
2022/01/12 07:26:03;;;;;;;59.77;30.37;;;4.00;99.90;;;;;;5047935;28;20028;-74
2022/01/12 07:28:29;;;;;;;62.93;31.40;;;;;;;;;;5048350;28;20033;-75
2022/01/12 07:30:55;;;;;;;57.40;28.30;;;3.90;99.90;;;;;;5048959;28;20033;-73
2022/01/12 07:33:22;;;;;;;53.23;25.00;;;;;;;;;;5048168;28;20032;-72
2022/01/12 07:35:48;;;;;;;56.67;27.40;;;4.10;99.90;;;;;;5031144;28;20036;-72
2022/01/12 07:38:13;;;;;;;53.63;26.43;;;3.90;99.90;;;;;;5048894;28;20040;-72
2022/01/12 07:40:39;;;;;;;48.10;24.83;;;4.00;99.90;;;;;;5041644;28;20044;-72
2022/01/12 07:43:08;;;;;;;56.83;25.23;;;4.00;99.90;;;;;;5028797;28;20352;-72
2022/01/12 07:45:34;;;;;;;58.43;24.90;;;;;;;;;;5037190;28;20021;-72
2022/01/12 07:48:00;;;;;;;60.73;29.20;;;4.00;99.90;;;;;;5048282;28;20421;-72
2022/01/12 07:50:26;;;;;;;59.20;26.77;;;4.00;99.90;;;;;;5047986;28;20040;-72
2022/01/12 07:52:53;;;;;;;50.97;25.60;;;4.00;99.90;;;;;;5048853;28;20470;-72
2022/01/12 07:55:23;;;;;;;53.90;26.07;;;4.00;99.90;;;;;;5048770;28;20421;-73
2022/01/12 07:57:50;;;;;;;47.43;23.97;;;4.10;99.90;;;;;;5022254;28;20147;-73
2022/01/12 08:00:17;;;;;;;50.03;23.67;;;4.00;99.90;;;;;;5040195;28;20028;-73
2022/01/12 08:02:43;;;;;;;62.83;26.43;;;;;;;;;;5045560;28;20126;-73
2022/01/12 08:05:09;;;;;;;67.77;26.57;;;4.10;99.90;;;;;;5052158;28;20055;-73
2022/01/12 08:07:38;;;;;;;58.30;25.07;;;;;;;;;;5051259;28;20043;-73
2022/01/12 08:10:05;;;;;;;67.30;27.07;;;4.00;99.90;;;;;;5048231;28;20033;-73
2022/01/12 08:12:30;;;;;;;57.83;26.47;;;4.00;99.90;;;;;;5051283;28;20470;-73
2022/01/12 08:14:56;;;;;;;56.53;24.37;;;4.20;99.90;;;;;;5051581;28;20079;-73
2022/01/12 08:17:22;;;;;;;56.00;26.23;;;;;;;;;;5042389;28;20065;-73
2022/01/12 08:19:47;;;;;;;65.27;27.23;;;3.90;99.90;;;;;;5031885;28;20033;-73
2022/01/12 08:22:14;;;;;;;57.97;24.90;;;;;;;;;;5031604;28;20096;-73
2022/01/12 08:24:39;;;;;;;56.90;24.23;;;3.90;99.90;;;;;;5031314;28;20029;-73
2022/01/12 08:27:07;;;;;;;58.07;25.13;;;4.00;99.90;;;;;;5031632;28;20501;-73
2022/01/12 08:29:33;;;;;;;65.73;27.47;;;;;;;;;;5039841;28;20478;-73
2022/01/12 08:31:58;;;;;;;60.40;25.77;;;4.00;99.90;;;;;;5046280;28;20244;-73
2022/01/12 08:34:24;;;;;;;56.17;24.87;;;;;;;;;;5043002;28;20478;-73
2022/01/12 08:36:50;;;;;;;64.17;26.10;;;4.20;99.90;;;;;;5032514;28;20072;-73
2022/01/12 08:39:17;;;;;;;69.40;29.00;;;4.10;99.90;;;;;;5032376;28;20450;-73
2022/01/12 08:41:42;;;;;;;61.67;27.77;;;4.10;99.90;;;;;;5031706;28;20049;-73
2022/01/12 08:44:09;;;;;;;86.23;33.60;;;4.90;99.90;;;;;;5029824;28;20112;-73
2022/01/12 08:46:36;;;;;;;86.30;33.50;;;4.10;99.90;;;;;;5030388;28;20033;-73
2022/01/12 08:49:02;;;;;;;88.43;33.33;;;4.00;99.90;;;;;;5031421;28;20029;-73
2022/01/12 08:51:28;;;;;;;82.20;29.90;;;;;;;;;;5043201;28;20044;-72
2022/01/12 08:53:54;;;;;;;81.93;30.90;;;;;;;;;;5031521;28;20100;-72
2022/01/12 08:56:20;;;;;;;62.90;26.43;;;;;;;;;;5030887;28;20029;-73
2022/01/12 08:58:46;;;;;;;63.73;24.93;;;4.40;99.90;;;;;;5035222;28;20712;-72
2022/01/12 09:01:12;;;;;;;61.83;26.70;;;;;;;;;;5039233;28;20034;-72
2022/01/12 09:03:39;;;;;;;67.83;28.07;;;4.20;99.90;;;;;;5038700;28;20027;-73
2022/01/12 09:06:05;;;;;;;64.00;27.20;;;;;;;;;;5050567;28;20087;-72
2022/01/12 09:08:32;;;;;;;71.33;28.33;;;4.30;99.90;;;;;;5050391;28;20017;-72
2022/01/12 09:10:58;;;;;;;64.20;24.80;;;;;;;;;;5039366;28;20386;-72
2022/01/12 09:13:24;;;;;;;58.40;23.07;;;;;;;;;;5030442;28;20021;-73
2022/01/12 09:15:49;;;;;;;64.83;27.83;;;4.40;99.90;;;;;;5038323;28;20088;-72
2022/01/12 09:18:15;;;;;;;63.60;27.00;;;4.60;99.90;;;;;;5040863;28;20013;-72
2022/01/12 09:20:41;;;;;;;65.90;27.37;;;4.40;99.90;;;;;;5030205;28;20867;-72
2022/01/12 09:23:07;;;;;;;57.90;26.47;;;;;;;;;;5030554;28;20033;-73
2022/01/12 09:25:35;;;;;;;63.40;24.83;;;4.60;99.90;;;;;;5030329;28;20109;-72
2022/01/12 09:28:02;;;;;;;63.40;29.57;;;;;;;;;;5030416;28;20138;-73
2022/01/12 09:30:29;;;;;;;67.90;27.13;;;4.40;99.90;;;;;;5045015;28;20025;-73
2022/01/12 09:32:55;;;;;;;54.07;25.07;;;;;;;;;;5050794;28;20112;-72
2022/01/12 09:35:21;;;;;;;69.13;27.60;;;4.50;99.90;;;;;;5038805;28;20136;-72
2022/01/12 09:37:47;;;;;;;52.23;24.60;;;;;;;;;;5030357;28;20116;-72
2022/01/12 09:40:12;;;;;;;60.63;26.53;;;4.70;99.90;;;;;;5030111;28;20037;-73
2022/01/12 09:42:38;;;;;;;62.30;25.83;;;;;;;;;;5029522;28;20117;-72
2022/01/12 09:45:06;;;;;;;57.53;24.93;;;4.70;99.90;;;;;;5035268;28;20954;-72
2022/01/12 09:47:32;;;;;;;51.33;25.77;;;;;;;;;;5048277;28;20494;-72
2022/01/12 09:49:58;;;;;;;54.87;23.83;;;4.80;99.90;;;;;;5050685;28;20055;-73
2022/01/12 09:52:23;;;;;;;54.23;25.80;;;4.80;99.90;;;;;;5049975;28;20029;-72
2022/01/12 09:54:49;;;;;;;55.87;24.53;;;4.70;99.90;;;;;;5050312;28;20466;-72
2022/01/12 09:57:15;;;;;;;57.47;25.57;;;4.80;99.90;;;;;;5043531;28;20028;-72
2022/01/12 09:59:41;;;;;;;59.60;26.50;;;4.70;99.90;;;;;;5039828;28;20037;-72
2022/01/12 10:02:17;;;;;;;59.60;26.37;;;4.60;99.90;;;;;;5036940;28;20088;-72
2022/01/12 10:04:44;;;;;;;51.90;24.87;;;;;;;;;;5029963;28;20022;-72
2022/01/12 10:07:11;;;;;;;61.77;23.60;;;;;;;;;;5029684;28;20036;-72
2022/01/12 10:09:39;;;;;;;50.63;23.37;;;4.80;99.90;;;;;;5029554;28;20022;-72
2022/01/12 10:12:14;;;;;;;59.53;24.50;;;4.80;99.90;;;;;;5011583;28;20119;-72
2022/01/12 10:14:55;;;;;;;47.57;23.23;;;4.60;99.90;;;;;;5029425;28;20037;-72
2022/01/12 10:17:34;;;;;;;47.30;20.97;;;4.90;99.90;;;;;;5029525;28;20040;-72
2022/01/12 10:20:11;;;;;;;55.70;23.97;;;4.90;99.90;;;;;;5028847;28;20030;-72
2022/01/12 10:22:55;;;;;;;59.57;23.83;;;4.80;99.90;;;;;;5027790;28;20044;-72
2022/01/12 10:25:21;;;;;;;54.80;23.70;;;;;;;;;;5028589;28;20040;-73
2022/01/12 10:27:48;;;;;;;50.47;22.17;;;4.90;99.90;;;;;;5029176;28;20030;-72
2022/01/12 10:30:29;;;;;;;51.07;23.07;;;4.90;99.90;;;;;;5029203;28;20018;-73
2022/01/12 10:33:04;;;;;;;45.70;20.40;;;4.00;99.90;;;;;;5032507;28;20052;-70
2022/01/12 10:35:32;;;;;;;47.27;21.80;;;5.40;99.90;;;;;;5048472;28;20036;-71
2022/01/12 10:38:09;;;;;;;49.07;20.67;;;5.10;99.90;;;;;;5049531;28;20424;-71
2022/01/12 10:40:49;;;;;;;49.67;21.43;;;5.20;99.90;;;;;;5031115;28;20083;-71
2022/01/12 10:43:26;;;;;;;53.80;23.13;;;5.00;99.90;;;;;;5049409;28;20060;-72
2022/01/12 10:45:52;;;;;;;52.10;23.73;;;;;;;;;;5034233;28;20036;-71
2022/01/12 10:48:18;;;;;;;57.90;23.43;;;;;;;;;;5029183;28;20426;-71
2022/01/12 10:50:58;;;;;;;51.20;24.10;;;5.20;99.90;;;;;;5045979;28;20025;-71
2022/01/12 10:53:33;;;;;;;48.03;21.60;;;5.50;99.90;;;;;;5047043;28;20108;-72
2022/01/12 10:56:04;;;;;;;51.77;23.97;;;5.30;99.90;;;;;;5048307;28;20021;-71
2022/01/12 10:58:31;;;;;;;48.23;21.43;;;5.30;99.90;;;;;;5046384;28;20108;-72
2022/01/12 11:00:57;;;;;;;50.83;23.70;;;5.40;99.90;;;;;;5026515;28;20021;-72
2022/01/12 11:03:23;;;;;;;48.87;22.00;;;;;;;;;;5048276;28;20032;-72
2022/01/12 11:05:50;;;;;;;52.80;24.00;;;5.30;99.90;;;;;;5036087;28;20079;-72
2022/01/12 11:08:18;;;;;;;46.27;22.60;;;5.30;99.90;;;;;;5029181;28;20472;-71
2022/01/12 11:10:45;;;;;;;50.37;22.87;;;5.20;99.90;;;;;;5027605;28;20067;-72
2022/01/12 11:13:11;;;;;;;49.77;23.57;;;5.30;99.90;;;;;;5038822;28;20032;-71
2022/01/12 11:15:38;;;;;;;45.80;22.30;;;;;;;;;;5047693;28;20020;-71
2022/01/12 11:18:04;;;;;;;46.80;22.87;;;5.30;99.90;;;;;;5048942;28;20036;-71
2022/01/12 11:20:30;;;;;;;48.57;20.80;;;5.40;99.90;;;;;;5047081;28;20057;-71
2022/01/12 11:23:11;;;;;;;45.83;21.83;;;5.40;99.90;;;;;;5028704;28;20847;-71
2022/01/12 11:25:54;;;;;;;47.03;20.77;;;5.60;99.90;;;;;;5023916;28;20013;-72
2022/01/12 11:28:25;;;;;;;41.90;19.97;;;5.60;99.90;;;;;;5036836;28;20045;-72
2022/01/12 11:30:50;;;;;;;48.03;22.43;;;6.00;99.90;;;;;;5027373;28;20072;-71
2022/01/12 11:33:35;;;;;;;50.90;23.00;;;5.50;99.90;;;;;;5042012;28;20104;-72
2022/01/12 11:36:33;;;;;;;53.83;23.38;;;5.50;99.90;;;;;;5042475;28;20029;-72
2022/01/12 11:39:11;;;;;;;45.73;20.03;;;5.40;99.90;;;;;;5025174;28;20032;-72
2022/01/12 11:41:38;;;;;;;52.20;22.37;;;5.60;99.90;;;;;;5050782;28;20049;-71
2022/01/12 11:44:12;;;;;;;48.27;21.10;;;5.50;99.90;;;;;;5043706;28;20022;-72
2022/01/12 11:46:55;;;;;;;;;;;5.60;99.90;;;;;;5032445;28;20025;-72
2022/01/12 11:49:39;;;;;;;45.23;19.07;;;5.60;99.90;;;;;;5031780;28;19999;-72
2022/01/12 11:52:13;;;;;;;;;;;5.60;99.90;;;;;;5032472;28;20021;-72
2022/01/12 11:54:43;;;;;;;39.67;18.77;;;5.50;99.90;;;;;;5013375;28;19912;-72
2022/01/12 11:57:11;;;;;;;50.40;23.93;;;5.50;99.90;;;;;;5032175;28;20052;-72
2022/01/12 11:59:58;;;;;;;43.17;19.57;;;5.60;99.90;;;;;;5041929;28;20052;-71
2022/01/12 12:02:37;;;;;;;47.43;22.63;;;5.70;99.90;;;;;;5041138;28;20075;-72
2022/01/12 12:05:08;;;;;;;50.07;22.33;;;5.60;99.90;;;;;;5014281;28;20127;-72
2022/01/12 12:07:52;;;;;;;41.47;21.37;;;5.50;99.90;;;;;;5039014;28;20020;-72
2022/01/12 12:10:22;;;;;;;43.07;19.50;;;5.80;99.90;;;;;;5031672;28;20036;-72
2022/01/12 12:12:51;;;;;;;38.90;20.10;;;5.70;99.90;;;;;;5032196;28;20434;-73
2022/01/12 12:15:16;;;;;;;38.70;18.23;;;5.90;99.90;;;;;;5031849;28;20025;-72
2022/01/12 12:17:43;;;;;;;39.93;17.87;;;5.80;99.90;;;;;;5031508;28;20767;-72
2022/01/12 12:20:12;;;;;;;34.20;17.43;;;6.00;99.90;;;;;;5031376;28;20033;-72
2022/01/12 12:22:40;;;;;;;44.83;19.17;;;5.80;99.90;;;;;;5041328;28;20037;-72
2022/01/12 12:25:14;;;;;;;40.83;19.13;;;6.00;99.90;;;;;;5039919;28;20021;-72
2022/01/12 12:27:43;;;;;;;47.67;20.58;;;5.90;99.90;;;;;;5030355;28;20079;-72
2022/01/12 12:30:15;;;;;;;39.87;20.80;;;5.90;99.90;;;;;;5039214;28;20024;-72
2022/01/12 12:32:46;;;;;;;47.70;19.73;;;6.00;99.90;;;;;;5039840;28;20529;-72
2022/01/12 12:35:18;;;;;;;43.70;18.90;;;5.90;99.90;;;;;;5040176;28;20025;-73
2022/01/12 12:37:51;;;;;;;39.63;20.30;;;5.90;99.90;;;;;;5035059;28;20363;-72
2022/01/12 12:40:21;;;;;;;47.17;22.13;;;5.80;99.90;;;;;;5036276;28;20092;-72
2022/01/12 12:42:48;;;;;;;40.30;19.57;;;5.80;99.90;;;;;;5036836;28;20096;-73
2022/01/12 12:45:14;;;;;;;44.50;20.97;;;5.80;99.90;;;;;;5031479;28;20097;-72
2022/01/12 12:47:40;;;;;;;42.50;20.90;;;5.80;99.90;;;;;;5050530;28;20104;-72
2022/01/12 12:50:09;;;;;;;40.97;19.30;;;6.20;99.90;;;;;;5051214;28;20048;-72
2022/01/12 12:52:37;;;;;;;42.57;19.97;;;5.80;99.90;;;;;;5050552;28;20480;-72
2022/01/12 12:55:15;;;;;;;36.17;18.70;;;5.90;99.90;;;;;;5051217;28;20033;-72
2022/01/12 12:57:49;;;;;;;45.47;21.77;;;6.00;99.90;;;;;;5032543;28;20499;-72
2022/01/12 13:00:17;;;;;;;39.35;18.33;;;5.90;99.90;;;;;;5040943;28;20048;-73
2022/01/12 13:02:46;;;;;;;41.67;18.17;;;6.00;99.90;;;;;;5015277;28;20041;-73
2022/01/12 13:05:16;;;;;;;35.60;17.57;;;6.00;99.90;;;;;;5043708;28;20022;-73
2022/01/12 13:07:43;;;;;;;40.27;21.33;;;5.90;99.90;;;;;;5050252;28;20538;-73
2022/01/12 13:10:13;;;;;;;43.03;20.00;;;5.90;99.90;;;;;;5042250;28;20135;-73
2022/01/12 13:12:40;;;;;;;46.13;21.73;;;6.00;99.90;;;;;;5046204;28;20025;-73
2022/01/12 13:15:10;;;;;;;43.87;19.23;;;5.80;99.90;;;;;;5048046;28;20021;-73
2022/01/12 13:17:39;;;;;;;36.87;18.30;;;;;;;;;;5030354;28;20025;-73
2022/01/12 13:22:39;;;;;;;41.90;19.50;;;5.90;99.90;;;;;;5039645;28;20033;-72
2022/01/12 13:25:08;;;;;;;35.67;18.60;;;5.90;99.90;;;;;;5039979;28;20485;-72
2022/01/12 13:27:35;;;;;;;38.23;18.10;;;5.80;99.90;;;;;;5038627;28;20040;-72
2022/01/12 13:30:01;;;;;;;37.93;19.97;;;;;;;;;;5020415;28;20116;-72
2022/01/12 13:32:27;;;;;;;41.70;20.40;;;;;;;;;;5035312;28;20100;-72
2022/01/12 13:35:05;;;;;;;42.60;21.57;;;5.80;99.90;;;;;;5042800;28;20025;-72
2022/01/12 13:37:31;;;;;;;44.70;22.53;;;;;;;;;;5029210;28;20028;-71
2022/01/12 13:40:09;;;;;;;48.80;24.27;;;5.80;99.90;;;;;;5042231;28;20029;-72
2022/01/12 13:42:56;;;;;;;51.00;23.77;;;5.70;99.90;;;;;;5034927;28;20233;-72
2022/01/12 13:45:27;;;;;;;51.93;26.37;;;5.70;99.90;;;;;;5038956;28;20378;-72
2022/01/12 13:47:59;;;;;;;60.63;30.80;;;5.80;99.90;;;;;;5050315;28;20048;-71
2022/01/12 13:50:36;;;;;;;65.77;33.17;;;5.60;99.90;;;;;;5045871;28;20021;-72
2022/01/12 13:53:02;;;;;;;60.83;31.67;;;5.60;99.90;;;;;;5049634;28;20032;-72
2022/01/12 13:55:28;;;;;;;58.13;33.03;;;;;;;;;;5048556;28;20025;-72
2022/01/12 13:58:05;;;;;;;56.63;29.30;;;5.70;99.90;;;;;;5032363;28;20035;-72
2022/01/12 14:00:33;;;;;;;64.90;31.80;;;5.70;99.90;;;;;;5049130;28;20025;-72
2022/01/12 14:02:58;;;;;;;62.83;31.83;;;5.60;99.90;;;;;;5049366;28;20548;-71
2022/01/12 14:05:37;;;;;;;61.40;31.93;;;5.60;99.90;;;;;;5031005;28;20059;-72
2022/01/12 14:08:10;;;;;;;59.77;30.87;;;5.70;99.90;;;;;;5044046;28;20020;-72
2022/01/12 14:10:36;;;;;;;45.47;23.93;;;;;;;;;;5031716;28;20348;-72
2022/01/12 14:13:02;;;;;;;47.03;22.27;;;;;;;;;;5029218;28;20585;-72
2022/01/12 14:15:33;;;;;;;44.43;20.97;;;5.50;99.90;;;;;;5036366;28;20032;-72
2022/01/12 14:17:59;;;;;;;35.80;20.37;;;5.60;99.90;;;;;;5028899;28;20112;-72
2022/01/12 14:20:31;;;;;;;37.23;17.63;;;5.40;99.90;;;;;;5028317;28;20103;-72
2022/01/12 14:22:59;;;;;;;43.57;21.27;;;5.60;99.90;;;;;;5034621;28;20029;-72
2022/01/12 14:25:49;;;;;;;45.93;20.47;;;5.40;99.90;;;;;;5031319;28;21099;-72
2022/01/12 14:28:30;;;;;;;45.47;22.17;;;3.10;99.90;;;;;;5033779;28;20167;-71
2022/01/12 14:30:56;;;;;;;52.80;21.67;;;5.00;99.90;;;;;;5033461;28;20517;-72
2022/01/12 14:33:22;;;;;;;32.67;17.30;;;;;;;;;;5038626;28;20041;-72
2022/01/12 14:35:49;;;;;;;39.60;19.20;;;5.30;99.90;;;;;;5049188;28;20104;-72